createdAt,value
2017-08-01T00:00:01.773Z,1000.05
2017-08-01T00:01:12.173Z,1000.03
2017-08-01T00:02:22.535Z,1000.02
2017-08-01T00:03:32.901Z,1000.05
2017-08-01T00:04:42.961Z,1000.08
2017-08-01T00:05:52.687Z,1000.06
2017-08-01T00:07:03.082Z,1000.06
2017-08-01T00:08:13.438Z,1000.07
2017-08-01T00:09:23.490Z,1000.03
2017-08-01T00:10:33.536Z,1000.04
2017-08-01T00:11:43.598Z,1000.01
2017-08-01T00:12:53.682Z,1000.01
2017-08-01T00:14:04.024Z,1000
2017-08-01T00:15:14.386Z,999.99
2017-08-01T00:16:24.736Z,999.94
2017-08-01T00:17:34.477Z,999.97
2017-08-01T00:18:44.568Z,999.94
2017-08-01T00:19:54.925Z,999.92
2017-08-01T00:21:05.278Z,999.9
2017-08-01T00:22:15.640Z,999.88
2017-08-01T00:23:25.998Z,999.86
2017-08-01T00:24:35.722Z,999.85
2017-08-01T00:25:45.784Z,999.82
2017-08-01T00:26:56.126Z,999.83
2017-08-01T00:28:06.183Z,999.8
2017-08-01T00:29:16.220Z,999.81
2017-08-01T00:30:26.299Z,999.78
2017-08-01T00:31:36.673Z,999.77
2017-08-01T00:32:46.720Z,999.76
2017-08-01T00:33:57.062Z,999.73
2017-08-01T00:35:07.415Z,999.74
2017-08-01T00:36:17.828Z,999.72
2017-08-01T00:37:28.167Z,999.73
2017-08-01T00:38:38.511Z,999.7
2017-08-01T00:39:48.542Z,999.72
2017-08-01T00:40:58.589Z,999.7
2017-08-01T00:42:09.008Z,999.7
2017-08-01T00:43:19.353Z,999.72
2017-08-01T00:44:29.401Z,999.68
2017-08-01T00:45:39.764Z,999.68
2017-08-01T00:46:49.804Z,999.67
2017-08-01T00:48:00.210Z,999.65
2017-08-01T00:49:10.566Z,999.65
2017-08-01T00:50:20.930Z,999.6
2017-08-01T00:51:30.970Z,999.6
2017-08-01T00:52:40.694Z,999.62
2017-08-01T00:53:51.102Z,999.57
2017-08-01T00:55:01.155Z,999.55
2017-08-01T00:56:10.573Z,999.53
2017-08-01T00:57:20.624Z,999.52
2017-08-01T00:58:30.668Z,999.53
2017-08-01T00:59:41.017Z,999.48
2017-08-01T01:00:51.054Z,999.5
2017-08-01T01:02:01.098Z,999.53
2017-08-01T01:03:11.440Z,999.52
2017-08-01T01:04:21.834Z,999.56
2017-08-01T01:05:32.269Z,999.56
2017-08-01T01:06:42.642Z,999.56
2017-08-01T01:07:52.695Z,999.64
2017-08-01T01:09:03.036Z,999.65
2017-08-01T01:10:13.068Z,999.67
2017-08-01T01:11:23.413Z,999.7
2017-08-01T01:12:33.452Z,999.67
2017-08-01T01:13:43.817Z,999.71
2017-08-01T01:14:53.560Z,999.72
2017-08-01T01:16:03.922Z,999.74
2017-08-01T01:17:14.333Z,999.69
2017-08-01T01:18:24.689Z,999.75
2017-08-01T01:19:35.031Z,999.77
2017-08-01T01:20:45.376Z,999.77
2017-08-01T01:21:55.730Z,999.79
2017-08-01T01:23:05.856Z,999.79
2017-08-01T01:24:15.882Z,999.78
2017-08-01T01:25:26.237Z,999.8
2017-08-01T01:26:36.592Z,999.77
2017-08-01T01:27:46.930Z,999.81
2017-08-01T01:28:57.324Z,999.75
2017-08-01T01:30:07.669Z,999.8
2017-08-01T01:31:18.024Z,999.82
2017-08-01T01:32:28.384Z,999.81
2017-08-01T01:33:38.744Z,999.82
2017-08-01T01:34:49.155Z,999.77
2017-08-01T01:35:59.492Z,999.74
2017-08-01T01:37:09.550Z,999.75
2017-08-01T01:38:19.888Z,999.76
2017-08-01T01:39:30.245Z,999.78
2017-08-01T01:40:40.642Z,999.73
2017-08-01T01:41:50.690Z,999.76
2017-08-01T01:43:00.736Z,999.72
2017-08-01T01:44:11.073Z,999.74
2017-08-01T01:45:21.425Z,999.73
2017-08-01T01:46:31.829Z,999.73
2017-08-01T01:47:41.883Z,999.72
2017-08-01T01:48:52.234Z,999.72
2017-08-01T01:50:02.591Z,999.73
2017-08-01T01:51:13.030Z,999.71
2017-08-01T01:52:23.432Z,999.74
2017-08-01T01:53:33.785Z,999.72
2017-08-01T01:54:43.816Z,999.74
2017-08-01T01:55:54.178Z,999.69
2017-08-01T01:57:04.527Z,999.72
2017-08-01T01:58:14.941Z,999.71
2017-08-01T01:59:24.992Z,999.76
2017-08-01T02:00:34.726Z,999.77
2017-08-01T02:01:45.078Z,999.79
2017-08-01T02:02:55.439Z,999.78
2017-08-01T02:04:05.523Z,999.81
2017-08-01T02:05:15.575Z,999.79
2017-08-01T02:06:25.606Z,999.78
2017-08-01T02:07:35.353Z,999.83
2017-08-01T02:08:45.706Z,999.78
2017-08-01T02:09:55.744Z,999.81
2017-08-01T02:11:06.095Z,999.82
2017-08-01T02:12:16.461Z,999.76
2017-08-01T02:13:26.814Z,999.81
2017-08-01T02:14:36.842Z,999.77
2017-08-01T02:15:47.237Z,999.78
2017-08-01T02:16:57.588Z,999.81
2017-08-01T02:18:07.944Z,999.82
2017-08-01T02:19:18.302Z,999.79
2017-08-01T02:20:28.664Z,999.83
2017-08-01T02:21:38.999Z,999.81
2017-08-01T02:22:49.037Z,999.8
2017-08-01T02:23:59.083Z,999.82
2017-08-01T02:25:08.814Z,999.81
2017-08-01T02:26:19.151Z,999.78
2017-08-01T02:27:28.923Z,999.74
2017-08-01T02:28:39.266Z,999.75
2017-08-01T02:29:49.663Z,999.74
2017-08-01T02:31:00.039Z,999.76
2017-08-01T02:32:10.062Z,999.79
2017-08-01T02:33:20.469Z,999.77
2017-08-01T02:34:30.176Z,999.74
2017-08-01T02:35:40.531Z,999.79
2017-08-01T02:36:50.898Z,999.79
2017-08-01T02:38:01.269Z,999.8
2017-08-01T02:39:11.676Z,999.78
2017-08-01T02:40:22.010Z,999.76
2017-08-01T02:41:32.070Z,999.78
2017-08-01T02:42:42.430Z,999.76
2017-08-01T02:43:52.473Z,999.76
2017-08-01T02:45:02.249Z,999.73
2017-08-01T02:46:12.616Z,999.73
2017-08-01T02:47:22.970Z,999.71
2017-08-01T02:48:33.336Z,999.74
2017-08-01T02:49:43.369Z,999.73
2017-08-01T02:50:53.780Z,999.72
2017-08-01T02:52:04.136Z,999.72
2017-08-01T02:53:14.491Z,999.72
2017-08-01T02:54:24.841Z,999.74
2017-08-01T02:55:35.192Z,999.74
2017-08-01T02:56:45.614Z,999.74
2017-08-01T02:57:55.650Z,999.74
2017-08-01T02:59:05.983Z,999.73
2017-08-01T03:00:16.338Z,999.75
2017-08-01T03:01:26.687Z,999.72
2017-08-01T03:33:07.373Z,999.72
2017-08-01T03:34:17.090Z,999.74
2017-08-01T03:35:27.422Z,999.71
2017-08-01T03:36:37.763Z,999.73
2017-08-01T03:37:48.098Z,999.73
2017-08-01T03:38:58.180Z,999.75
2017-08-01T03:40:08.521Z,999.71
2017-08-01T03:41:18.859Z,999.76
2017-08-01T03:42:29.209Z,999.78
2017-08-01T03:43:39.244Z,999.79
2017-08-01T03:44:49.634Z,999.78
2017-08-01T03:45:59.671Z,999.8
2017-08-01T03:47:09.699Z,999.83
2017-08-01T03:48:20.048Z,999.8
2017-08-01T03:49:30.393Z,999.82
2017-08-01T03:50:40.169Z,999.86
2017-08-01T03:51:50.510Z,999.81
2017-08-01T03:53:00.863Z,999.84
2017-08-01T03:54:11.198Z,999.85
2017-08-01T03:55:21.541Z,999.87
2017-08-01T03:56:31.619Z,999.86
2017-08-01T03:57:41.973Z,999.86
2017-08-01T03:58:52.322Z,999.83
2017-08-01T04:00:02.673Z,999.9
2017-08-01T04:01:13.034Z,999.88
2017-08-01T04:02:23.379Z,999.86
2017-08-01T04:03:33.735Z,999.88
2017-08-01T04:04:43.766Z,999.84
2017-08-01T04:05:54.134Z,999.86
2017-08-01T04:07:04.483Z,999.88
2017-08-01T04:08:14.825Z,999.89
2017-08-01T04:09:25.186Z,999.9
2017-08-01T04:10:35.221Z,999.92
2017-08-01T04:11:45.568Z,999.95
2017-08-01T04:12:55.916Z,999.94
2017-08-01T04:14:05.996Z,999.94
2017-08-01T04:15:16.038Z,999.95
2017-08-01T04:16:26.389Z,999.94
2017-08-01T04:17:36.748Z,999.97
2017-08-01T04:18:47.096Z,999.95
2017-08-01T04:19:57.143Z,999.93
2017-08-01T04:21:07.500Z,999.97
2017-08-01T04:22:17.534Z,999.94
2017-08-01T04:23:27.580Z,1000
2017-08-01T04:24:37.917Z,999.96
2017-08-01T04:25:48.301Z,999.98
2017-08-01T04:26:58.630Z,999.95
2017-08-01T04:28:09.001Z,1000.11
2017-08-01T04:29:19.392Z,1000.3
2017-08-01T04:30:29.136Z,1000.36
2017-08-01T04:31:39.218Z,1000.39
2017-08-01T04:32:49.250Z,1000.4
2017-08-01T04:33:59.303Z,1000.44
2017-08-01T04:35:09.356Z,1000.3
2017-08-01T04:36:19.704Z,1000.39
2017-08-01T04:37:30.055Z,1000.28
2017-08-01T04:38:40.399Z,1000.11
2017-08-01T04:39:50.755Z,1000.02
2017-08-01T04:41:01.092Z,1000.04
2017-08-01T04:42:11.442Z,1000.08
2017-08-01T04:43:21.808Z,1000.13
2017-08-01T04:44:31.850Z,1000.09
2017-08-01T04:45:42.213Z,1000.05
2017-08-01T04:46:52.577Z,1000.05
2017-08-01T04:48:02.936Z,1000.02
2017-08-01T04:49:13.295Z,1000.03
2017-08-01T04:50:23.656Z,1000.01
2017-08-01T04:51:34.009Z,1000.08
2017-08-01T04:52:44.349Z,1000.14
2017-08-01T04:53:54.706Z,1000.39
2017-08-01T04:55:05.050Z,1000.27
2017-08-01T04:56:15.414Z,1000.37
2017-08-01T04:57:25.451Z,1000.42
2017-08-01T04:58:35.806Z,1000.43
2017-08-01T04:59:46.160Z,1000.46
2017-08-01T05:00:56.517Z,1000.46
2017-08-01T05:02:06.561Z,1000.56
2017-08-01T05:03:16.921Z,1000.6
2017-08-01T05:04:27.292Z,1000.64
2017-08-01T05:05:37.652Z,1000.57
2017-08-01T05:06:48.056Z,1000.62
2017-08-01T05:07:58.407Z,1000.56
2017-08-01T05:09:08.457Z,1000.54
2017-08-01T05:10:18.806Z,1000.53
2017-08-01T05:11:28.842Z,1000.48
2017-08-01T05:12:38.940Z,1000.45
2017-08-01T05:13:49.316Z,1000.43
2017-08-01T05:14:59.703Z,1000.44
2017-08-01T05:16:10.076Z,1000.46
2017-08-01T05:17:20.422Z,1000.47
2017-08-01T05:18:30.151Z,1000.47
2017-08-01T05:19:40.505Z,1000.46
2017-08-01T05:20:50.852Z,1000.49
2017-08-01T05:22:01.208Z,1000.53
2017-08-01T05:23:11.570Z,1000.49
2017-08-01T05:24:21.978Z,1000.53
2017-08-01T05:25:32.342Z,1000.52
2017-08-01T05:26:42.380Z,1000.52
2017-08-01T05:27:52.737Z,1000.51
2017-08-01T05:29:03.084Z,1000.53
2017-08-01T05:30:13.454Z,1000.48
2017-08-01T05:31:23.812Z,1000.49
2017-08-01T05:32:34.182Z,1000.55
2017-08-01T05:33:44.548Z,1000.61
2017-08-01T05:34:54.899Z,1000.6
2017-08-01T05:36:04.959Z,1000.58
2017-08-01T05:37:15.320Z,1000.59
2017-08-01T05:38:25.363Z,1000.59
2017-08-01T05:39:35.408Z,1000.58
2017-08-01T05:40:45.778Z,1000.57
2017-08-01T05:41:56.206Z,1000.6
2017-08-01T05:43:06.560Z,1000.72
2017-08-01T05:44:16.599Z,1001.25
2017-08-01T05:45:26.636Z,1001.52
2017-08-01T05:46:36.997Z,1001.17
2017-08-01T05:47:47.411Z,1001.03
2017-08-01T05:48:57.760Z,1001.14
2017-08-01T05:50:07.827Z,1001.11
2017-08-01T05:51:18.192Z,1000.95
2017-08-01T05:52:28.536Z,1000.84
2017-08-01T05:53:38.589Z,1000.85
2017-08-01T05:54:48.646Z,1001.05
2017-08-01T05:55:58.678Z,1001.07
2017-08-01T05:57:09.025Z,1000.96
2017-08-01T05:58:19.072Z,1000.96
2017-08-01T05:59:29.170Z,1001.01
2017-08-01T06:00:38.897Z,1001.05
2017-08-01T06:01:49.236Z,1001.04
2017-08-01T06:02:59.270Z,1000.97
2017-08-01T06:04:09.312Z,1000.96
2017-08-01T06:05:19.346Z,1001
2017-08-01T06:06:29.711Z,1001.03
2017-08-01T06:07:39.748Z,1001.06
2017-08-01T06:08:49.797Z,1000.77
2017-08-01T06:09:59.845Z,1000.43
2017-08-01T06:11:09.934Z,1000.3
2017-08-01T06:12:19.660Z,1000.31
2017-08-01T06:13:29.697Z,1000.37
2017-08-01T06:14:40.043Z,1000.3
2017-08-01T06:15:50.090Z,1000.29
2017-08-01T06:17:00.179Z,1000.27
2017-08-01T06:18:10.557Z,1000.3
2017-08-01T06:19:20.920Z,1000.34
2017-08-01T06:20:31.281Z,1000.38
2017-08-01T06:21:41.633Z,1000.46
2017-08-01T06:22:51.670Z,1000.48
2017-08-01T06:24:02.014Z,1000.47
2017-08-01T06:25:12.365Z,1000.47
2017-08-01T06:26:22.413Z,1000.41
2017-08-01T06:27:32.453Z,1000.42
2017-08-01T06:28:42.825Z,1000.42
2017-08-01T06:29:52.878Z,1000.39
2017-08-01T06:31:02.602Z,1000.33
2017-08-01T06:32:12.986Z,1000.33
2017-08-01T06:33:23.047Z,1000.29
2017-08-01T06:34:33.460Z,1000.27
2017-08-01T06:35:43.804Z,1000.29
2017-08-01T06:36:54.184Z,1000.27
2017-08-01T06:38:04.543Z,1000.28
2017-08-01T06:39:14.900Z,1000.3
2017-08-01T06:40:25.314Z,1000.29
2017-08-01T06:41:35.663Z,1000.23
2017-08-01T06:42:45.713Z,1000.19
2017-08-01T06:43:56.068Z,1000.22
2017-08-01T06:45:06.094Z,1000.19
2017-08-01T06:46:16.495Z,1000.17
2017-08-01T06:47:26.857Z,1000.16
2017-08-01T06:48:37.219Z,1000.19
2017-08-01T06:49:47.271Z,1000.28
2017-08-01T06:50:57.618Z,1000.22
2017-08-01T06:52:08.038Z,1000.19
2017-08-01T06:53:18.090Z,1000.2
2017-08-01T06:54:27.809Z,1000.22
2017-08-01T06:55:38.172Z,1000.23
2017-08-01T06:56:48.536Z,1000.23
2017-08-01T06:57:59.034Z,1000.23
2017-08-01T06:59:09.401Z,1000.21
2017-08-01T07:00:19.453Z,1000.2
2017-08-01T07:01:29.827Z,1000.17
2017-08-01T07:02:40.196Z,1000.17
2017-08-01T07:03:50.616Z,1000.15
2017-08-01T07:05:00.973Z,1000.21
2017-08-01T07:06:11.346Z,1000.16
2017-08-01T07:07:21.377Z,1000.13
2017-08-01T07:08:31.721Z,1000.19
2017-08-01T07:09:41.842Z,1000.17
2017-08-01T07:10:52.202Z,1000.24
2017-08-01T07:12:02.256Z,1000.2
2017-08-01T07:13:12.621Z,1000.15
2017-08-01T07:14:22.355Z,1000.23
2017-08-01T07:15:32.766Z,1000.24
2017-08-01T07:16:42.810Z,1000.25
2017-08-01T07:17:53.173Z,1000.24
2017-08-01T07:19:03.535Z,1000.25
2017-08-01T07:20:13.598Z,1000.24
2017-08-01T07:21:24.008Z,1000.28
2017-08-01T07:22:34.082Z,1000.28
2017-08-01T07:23:44.147Z,1000.32
2017-08-01T07:24:54.502Z,1000.27
2017-08-01T07:26:04.557Z,1000.32
2017-08-01T07:27:14.979Z,1000.36
2017-08-01T07:28:25.335Z,1000.35
2017-08-01T07:29:35.682Z,1000.37
2017-08-01T07:30:45.734Z,1000.33
2017-08-01T07:31:55.783Z,1000.43
2017-08-01T07:33:06.178Z,1000.38
2017-08-01T07:34:16.547Z,1000.42
2017-08-01T07:35:26.893Z,1000.37
2017-08-01T07:36:37.282Z,1000.4
2017-08-01T07:37:47.656Z,1000.39
2017-08-01T07:38:57.613Z,1000.4
2017-08-01T07:40:08.021Z,1000.39
2017-08-01T07:41:18.404Z,1000.43
2017-08-01T07:42:28.806Z,1000.4
2017-08-01T07:43:39.213Z,1000.39
2017-08-01T07:44:49.344Z,1000.4
2017-08-01T07:45:59.439Z,1000.43
2017-08-01T07:47:09.868Z,1000.41
2017-08-01T07:48:20.007Z,1000.44
2017-08-01T07:49:30.465Z,1000.43
2017-08-01T07:50:40.892Z,1000.39
2017-08-01T07:51:51.343Z,1000.39
2017-08-01T07:53:01.711Z,1000.42
2017-08-01T07:54:11.756Z,1000.43
2017-08-01T07:55:22.210Z,1000.4
2017-08-01T07:56:32.313Z,1000.41
2017-08-01T07:57:42.394Z,1000.45
2017-08-01T07:58:52.787Z,1000.44
2017-08-01T08:00:03.165Z,1000.4
2017-08-01T08:01:13.536Z,1000.39
2017-08-01T08:02:23.961Z,1000.36
2017-08-01T08:03:34.022Z,1000.37
2017-08-01T08:04:44.101Z,1000.41
2017-08-01T08:05:54.479Z,1000.42
2017-08-01T08:07:04.884Z,1000.42
2017-08-01T08:08:15.332Z,1000.42
2017-08-01T08:09:25.774Z,1000.4
2017-08-01T08:10:36.216Z,1000.43
2017-08-01T08:11:46.352Z,1000.43
2017-08-01T08:12:56.717Z,1000.41
2017-08-01T08:14:06.818Z,1000.42
2017-08-01T08:15:17.358Z,1000.43
2017-08-01T08:16:27.429Z,1000.4
2017-08-01T08:17:37.855Z,1000.37
2017-08-01T08:18:48.237Z,1000.37
2017-08-01T08:19:58.360Z,1000.35
2017-08-01T08:21:08.504Z,1000.34
2017-08-01T08:22:18.555Z,1000.31
2017-08-01T08:23:28.952Z,1000.33
2017-08-01T08:24:39.341Z,1000.33
2017-08-01T08:25:49.777Z,1000.28
2017-08-01T08:27:00.222Z,1000.27
2017-08-01T08:28:10.604Z,1000.18
2017-08-01T08:29:20.971Z,1000.21
2017-08-01T08:30:31.356Z,1000.21
2017-08-01T08:31:41.802Z,1000.15
2017-08-01T08:32:52.214Z,1000.17
2017-08-01T08:34:02.692Z,1000.19
2017-08-01T08:35:12.739Z,1000.2
2017-08-01T08:36:22.474Z,1000.2
2017-08-01T08:37:32.919Z,1000.17
2017-08-01T08:38:43.321Z,1000.16
2017-08-01T08:39:53.776Z,1000.13
2017-08-01T08:41:03.594Z,1000.15
2017-08-01T08:42:13.644Z,1000.18
2017-08-01T08:43:24.048Z,1000.16
2017-08-01T08:44:34.089Z,1000.16
2017-08-01T08:45:44.453Z,1000.14
2017-08-01T08:46:54.877Z,1000.15
2017-08-01T08:48:05.225Z,1000.11
2017-08-01T08:49:15.388Z,1000.15
2017-08-01T08:50:25.764Z,1000.15
2017-08-01T08:51:36.245Z,1000.16
2017-08-01T08:52:46.620Z,1000.12
2017-08-01T08:53:57.044Z,1000.17
2017-08-01T08:55:07.099Z,1000.15
2017-08-01T08:56:17.153Z,1000.13
2017-08-01T08:57:27.506Z,1000.11
2017-08-01T08:58:37.957Z,1000.09
2017-08-01T08:59:48.014Z,1000.11
2017-08-01T09:00:58.448Z,1000.09
2017-08-01T09:02:08.825Z,1000.01
2017-08-01T09:03:19.205Z,999.96
2017-08-01T09:04:29.321Z,1000.06
2017-08-01T09:05:39.720Z,999.99
2017-08-01T09:06:50.157Z,1000
2017-08-01T09:08:00.574Z,1000.03
2017-08-01T09:09:11.018Z,999.97
2017-08-01T09:10:21.384Z,999.94
2017-08-01T09:11:31.420Z,999.95
2017-08-01T09:12:41.783Z,999.91
2017-08-01T09:13:52.140Z,999.92
2017-08-01T09:15:02.520Z,999.91
2017-08-01T09:16:12.918Z,999.85
2017-08-01T09:17:22.665Z,999.84
2017-08-01T09:18:33.021Z,999.8
2017-08-01T09:19:43.071Z,999.79
2017-08-01T09:20:53.430Z,999.77
2017-08-01T09:22:03.819Z,999.83
2017-08-01T09:23:14.175Z,999.65
2017-08-01T09:24:24.645Z,999.77
2017-08-01T09:25:35.082Z,999.8
2017-08-01T09:26:45.207Z,999.75
2017-08-01T09:27:55.640Z,999.7
2017-08-01T09:29:05.694Z,999.74
2017-08-01T09:30:16.121Z,999.7
2017-08-01T09:31:26.192Z,999.6
2017-08-01T09:32:36.244Z,999.67
2017-08-01T09:33:46.372Z,999.72
2017-08-01T09:34:56.753Z,999.68
2017-08-01T09:36:07.193Z,999.68
2017-08-01T09:37:17.268Z,999.65
2017-08-01T09:38:27.644Z,999.7
2017-08-01T09:39:38.027Z,999.66
2017-08-01T09:40:48.099Z,999.63
2017-08-01T09:41:58.196Z,999.62
2017-08-01T09:43:08.631Z,999.6
2017-08-01T09:44:19.041Z,999.6
2017-08-01T09:45:29.427Z,999.66
2017-08-01T09:46:39.782Z,999.64
2017-08-01T09:47:50.213Z,999.61
2017-08-01T09:49:00.597Z,999.63
2017-08-01T09:50:10.971Z,999.61
2017-08-01T09:51:21.082Z,999.58
2017-08-01T09:52:31.474Z,999.61
2017-08-01T09:53:41.865Z,999.67
2017-08-01T09:54:52.239Z,999.69
2017-08-01T09:56:02.024Z,999.64
2017-08-01T09:57:12.416Z,999.62
2017-08-01T09:58:22.795Z,999.67
2017-08-01T09:59:32.908Z,999.62
2017-08-01T10:00:43.540Z,999.58
2017-08-01T10:01:53.984Z,999.56
2017-08-01T10:03:04.466Z,999.61
2017-08-01T10:04:14.835Z,999.57
2017-08-01T10:05:25.254Z,999.62
2017-08-01T10:06:35.294Z,999.59
2017-08-01T10:07:45.382Z,999.51
2017-08-01T10:08:55.419Z,999.59
2017-08-01T10:10:05.819Z,999.56
2017-08-01T10:11:16.240Z,999.62
2017-08-01T10:12:26.328Z,999.59
2017-08-01T10:13:36.415Z,999.58
2017-08-01T10:14:46.180Z,999.59
2017-08-01T10:15:56.556Z,999.54
2017-08-01T10:17:06.658Z,999.57
2017-08-01T10:18:16.738Z,999.56
2017-08-01T10:19:27.163Z,999.49
2017-08-01T10:20:37.543Z,999.52
2017-08-01T10:21:47.961Z,999.5
2017-08-01T10:22:58.122Z,999.47
2017-08-01T10:24:08.523Z,999.52
2017-08-01T10:25:18.951Z,999.47
2017-08-01T10:26:29.328Z,999.48
2017-08-01T10:27:39.411Z,999.45
2017-08-01T10:28:49.868Z,999.45
2017-08-01T10:30:00.248Z,999.48
2017-08-01T10:31:10.648Z,999.45
2017-08-01T10:32:21.042Z,999.35
2017-08-01T10:33:31.100Z,999.5
2017-08-01T10:34:41.518Z,999.43
2017-08-01T10:35:51.885Z,999.47
2017-08-01T10:37:01.962Z,999.4
2017-08-01T10:38:12.402Z,999.37
2017-08-01T10:39:22.792Z,999.36
2017-08-01T10:40:33.175Z,999.3
2017-08-01T10:41:43.562Z,999.26
2017-08-01T10:42:53.962Z,999.24
2017-08-01T10:44:04.363Z,999.26
2017-08-01T10:45:14.425Z,999.2
2017-08-01T10:46:24.857Z,999.23
2017-08-01T10:47:34.923Z,999.24
2017-08-01T10:48:45.327Z,999.22
2017-08-01T10:49:55.693Z,999.22
2017-08-01T10:51:05.746Z,999.09
2017-08-01T10:52:16.146Z,999.27
2017-08-01T10:53:26.533Z,999.17
2017-08-01T10:54:36.897Z,999.23
2017-08-01T10:55:46.979Z,999.12
2017-08-01T10:56:57.357Z,999.2
2017-08-01T10:58:07.828Z,999.21
2017-08-01T10:59:18.207Z,999.2
2017-08-01T11:00:28.613Z,999.14
2017-08-01T11:01:39.005Z,999.18
2017-08-01T11:02:48.761Z,999.17
2017-08-01T11:03:59.197Z,999.13
2017-08-01T11:05:09.567Z,999.22
2017-08-01T11:06:19.967Z,999.17
2017-08-01T11:07:30.337Z,999.05
2017-08-01T11:08:40.691Z,999.09
2017-08-01T11:09:51.117Z,999.03
2017-08-01T11:11:01.498Z,999.17
2017-08-01T11:12:11.551Z,999.18
2017-08-01T11:13:21.617Z,999.11
2017-08-01T11:14:31.980Z,999.1
2017-08-01T11:15:42.095Z,999.13
2017-08-01T11:16:52.154Z,999.06
2017-08-01T11:18:02.519Z,999.12
2017-08-01T11:19:12.959Z,999.09
2017-08-01T11:20:23.015Z,999.12
2017-08-01T11:21:33.449Z,999.14
2017-08-01T11:22:43.811Z,999.1
2017-08-01T11:23:54.189Z,999.13
2017-08-01T11:25:04.568Z,999.08
2017-08-01T11:26:14.944Z,999.09
2017-08-01T11:27:25.385Z,999.06
2017-08-01T11:28:35.833Z,999.04
2017-08-01T11:29:45.893Z,999.06
2017-08-01T11:30:56.277Z,999.01
2017-08-01T11:32:06.688Z,998.96
2017-08-01T11:33:17.172Z,998.94
2017-08-01T11:34:27.582Z,999.01
2017-08-01T11:35:37.942Z,998.97
2017-08-01T11:36:47.749Z,998.9
2017-08-01T11:37:58.230Z,998.97
2017-08-01T11:39:08.705Z,999.03
2017-08-01T11:40:18.766Z,998.97
2017-08-01T11:41:28.850Z,999
2017-08-01T11:42:38.937Z,998.96
2017-08-01T11:43:49.339Z,998.93
2017-08-01T11:44:59.742Z,998.89
2017-08-01T11:46:09.837Z,998.99
2017-08-01T11:47:20.237Z,998.98
2017-08-01T11:48:30.631Z,998.99
2017-08-01T11:49:41.013Z,998.95
2017-08-01T11:50:51.160Z,998.96
2017-08-01T11:52:01.637Z,998.94
2017-08-01T11:53:11.514Z,998.93
2017-08-01T11:54:21.912Z,998.93
2017-08-01T11:55:32.300Z,998.85
2017-08-01T11:56:42.729Z,998.88
2017-08-01T11:57:53.114Z,998.79
2017-08-01T11:59:03.514Z,998.83
2017-08-01T12:00:13.584Z,998.81
2017-08-01T12:01:23.657Z,998.72
2017-08-01T12:02:33.810Z,998.78
2017-08-01T12:03:44.191Z,998.81
2017-08-01T12:04:54.565Z,998.84
2017-08-01T12:06:04.930Z,998.82
2017-08-01T12:07:15.019Z,998.86
2017-08-01T12:08:25.428Z,998.78
2017-08-01T12:09:35.814Z,998.79
2017-08-01T12:10:46.201Z,998.89
2017-08-01T12:11:56.576Z,998.85
2017-08-01T12:13:06.646Z,998.83
2017-08-01T12:14:16.741Z,998.79
2017-08-01T12:15:27.184Z,998.84
2017-08-01T12:16:37.280Z,998.85
2017-08-01T12:17:47.388Z,998.81
2017-08-01T12:18:57.842Z,998.8
2017-08-01T12:20:08.218Z,998.8
2017-08-01T12:21:18.602Z,998.81
2017-08-01T12:22:29.008Z,998.8
2017-08-01T12:23:39.432Z,998.74
2017-08-01T12:24:49.879Z,998.71
2017-08-01T12:25:59.935Z,998.74
2017-08-01T12:27:10.311Z,998.66
2017-08-01T12:28:20.738Z,998.69
2017-08-01T12:29:31.126Z,998.68
2017-08-01T12:30:41.547Z,998.71
2017-08-01T12:31:52.023Z,998.69
2017-08-01T12:33:02.410Z,998.7
2017-08-01T12:34:12.470Z,998.59
2017-08-01T12:35:22.611Z,998.66
2017-08-01T12:36:32.705Z,998.66
2017-08-01T12:37:43.080Z,998.59
2017-08-01T12:38:53.130Z,998.58
2017-08-01T12:40:03.539Z,998.6
2017-08-01T12:41:14.043Z,998.57
2017-08-01T12:42:24.440Z,998.6
2017-08-01T12:43:34.872Z,998.48
2017-08-01T12:44:45.210Z,998.54
2017-08-01T12:45:55.624Z,998.54
2017-08-01T12:47:05.691Z,998.55
2017-08-01T12:48:15.846Z,998.45
2017-08-01T12:49:26.206Z,998.5
2017-08-01T12:50:36.713Z,998.49
2017-08-01T12:51:47.115Z,998.46
2017-08-01T12:52:57.531Z,998.52
2017-08-01T12:54:07.909Z,998.46
2017-08-01T12:55:18.324Z,998.42
2017-08-01T12:56:28.724Z,998.4
2017-08-01T12:57:38.815Z,998.41
2017-08-01T12:58:49.094Z,998.41
2017-08-01T12:59:59.470Z,998.46
2017-08-01T13:01:09.869Z,998.44
2017-08-01T13:02:20.262Z,998.39
2017-08-01T13:03:30.438Z,998.33
2017-08-01T13:04:40.869Z,998.36
2017-08-01T13:05:50.610Z,998.34
2017-08-01T13:07:01.045Z,998.36
2017-08-01T13:08:11.521Z,998.28
2017-08-01T13:09:21.583Z,998.25
2017-08-01T13:10:31.702Z,998.2
2017-08-01T13:11:42.083Z,998.18
2017-08-01T13:12:52.463Z,998.29
2017-08-01T13:14:02.528Z,998.26
2017-08-01T13:15:12.918Z,998.22
2017-08-01T13:16:23.056Z,998.21
2017-08-01T13:17:33.510Z,998.21
2017-08-01T13:18:43.919Z,998.18
2017-08-01T13:19:54.311Z,998.24
2017-08-01T13:21:04.707Z,998.19
2017-08-01T13:22:15.186Z,998.22
2017-08-01T13:23:25.562Z,998.16
2017-08-01T13:24:35.626Z,998.13
2017-08-01T13:25:46.011Z,998.15
2017-08-01T13:26:56.402Z,998.09
2017-08-01T13:28:06.882Z,998.14
2017-08-01T13:29:17.284Z,998.07
2017-08-01T13:30:27.654Z,998.19
2017-08-01T13:31:38.048Z,998.07
2017-08-01T13:32:48.451Z,998.12
2017-08-01T13:33:58.196Z,998.07
2017-08-01T13:35:08.666Z,998.01
2017-08-01T13:36:19.047Z,998.04
2017-08-01T13:37:29.417Z,998.05
2017-08-01T13:38:39.803Z,997.97
2017-08-01T13:39:50.237Z,997.91
2017-08-01T13:41:00.610Z,997.89
2017-08-01T13:42:10.978Z,997.94
2017-08-01T13:43:21.356Z,997.9
2017-08-01T13:44:31.420Z,997.99
2017-08-01T13:45:41.838Z,997.82
2017-08-01T13:46:52.198Z,997.94
2017-08-01T13:48:02.616Z,997.92
2017-08-01T13:49:12.991Z,997.91
2017-08-01T13:50:23.448Z,997.94
2017-08-01T13:51:33.547Z,997.91
2017-08-01T13:52:43.981Z,997.83
2017-08-01T13:53:54.345Z,997.94
2017-08-01T13:55:04.727Z,997.92
2017-08-01T13:56:15.143Z,997.9
2017-08-01T13:57:25.324Z,997.93
2017-08-01T13:58:35.406Z,997.89
2017-08-01T13:59:45.492Z,997.9
2017-08-01T14:00:55.544Z,997.8
2017-08-01T14:02:05.997Z,997.85
2017-08-01T14:03:15.787Z,997.9
2017-08-01T14:04:26.240Z,997.89
2017-08-01T14:05:36.326Z,997.83
2017-08-01T14:06:46.786Z,997.89
2017-08-01T14:07:56.851Z,997.82
2017-08-01T14:09:06.948Z,997.87
2017-08-01T14:10:16.994Z,997.84
2017-08-01T14:11:27.404Z,997.75
2017-08-01T14:12:37.780Z,997.87
2017-08-01T14:13:48.161Z,997.83
2017-08-01T14:14:58.579Z,997.8
2017-08-01T14:16:08.956Z,997.77
2017-08-01T14:17:19.387Z,997.79
2017-08-01T14:18:29.813Z,997.81
2017-08-01T14:19:40.178Z,997.81
2017-08-01T14:20:50.560Z,997.75
2017-08-01T14:22:00.326Z,997.73
2017-08-01T14:23:10.454Z,997.62
2017-08-01T14:24:20.542Z,997.75
2017-08-01T14:25:30.949Z,997.73
2017-08-01T14:26:41.416Z,997.75
2017-08-01T14:27:51.827Z,997.71
2017-08-01T14:29:02.196Z,997.69
2017-08-01T14:30:12.569Z,997.83
2017-08-01T14:31:22.669Z,997.76
2017-08-01T14:32:33.071Z,997.76
2017-08-01T14:33:43.487Z,997.72
2017-08-01T14:34:53.547Z,997.7
2017-08-01T14:36:03.336Z,997.68
2017-08-01T14:37:13.740Z,997.67
2017-08-01T14:38:24.149Z,997.68
2017-08-01T14:39:34.534Z,997.68
2017-08-01T14:40:44.607Z,997.63
2017-08-01T14:41:54.992Z,997.61
2017-08-01T14:43:05.048Z,997.62
2017-08-01T14:44:15.440Z,997.75
2017-08-01T14:45:25.493Z,997.64
2017-08-01T14:46:35.884Z,997.57
2017-08-01T14:47:46.323Z,997.65
2017-08-01T14:48:56.708Z,997.64
2017-08-01T14:50:07.171Z,997.66
2017-08-01T14:51:17.540Z,997.67
2017-08-01T14:52:27.944Z,997.63
2017-08-01T14:53:38.344Z,997.6
2017-08-01T14:54:48.433Z,997.63
2017-08-01T14:55:58.858Z,997.64
2017-08-01T14:57:09.230Z,997.7
2017-08-01T14:58:19.594Z,997.63
2017-08-01T14:59:29.644Z,997.73
2017-08-01T15:00:40.035Z,997.7